createdAt,value
2018-04-29T00:00:54.590Z,80.59
2018-04-29T00:01:54.594Z,81.26
2018-04-29T00:02:54.589Z,81.26
2018-04-29T00:03:54.587Z,81.55
2018-04-29T00:04:54.586Z,80.98
2018-04-29T00:05:54.592Z,80.88
2018-04-29T00:06:54.590Z,81.07
2018-04-29T00:07:54.592Z,81.26
2018-04-29T00:08:54.590Z,80.69
2018-04-29T00:09:54.593Z,81.36
2018-04-29T00:10:54.582Z,81.16
2018-04-29T00:11:54.590Z,81.45
2018-04-29T00:12:54.588Z,80.88
2018-04-29T00:13:54.587Z,80.98
2018-04-29T00:14:54.585Z,81.45
2018-04-29T00:15:54.585Z,81.45
2018-04-29T00:16:54.580Z,81.36
2018-04-29T00:17:54.584Z,80.98
2018-04-29T00:18:54.586Z,81.55
2018-04-29T00:19:54.582Z,81.45
2018-04-29T00:20:54.582Z,81.93
2018-04-29T00:21:54.585Z,81.74
2018-04-29T00:22:54.582Z,81.55
2018-04-29T00:23:54.584Z,81.45
2018-04-29T00:24:54.581Z,82.03
2018-04-29T00:25:54.579Z,81.30
2018-04-29T00:26:54.578Z,81.49
2018-04-29T00:27:54.578Z,81.26
2018-04-29T00:28:54.578Z,81.36
2018-04-29T00:29:54.578Z,81.88
2018-04-29T00:30:54.573Z,81.84
2018-04-29T00:31:54.577Z,82.17
2018-04-29T00:32:54.627Z,81.49
2018-04-29T00:33:54.575Z,81.49
2018-04-29T00:34:54.576Z,81.45
2018-04-29T00:35:54.573Z,81.55
2018-04-29T00:36:54.578Z,81.26
2018-04-29T00:37:54.574Z,81.45
2018-04-29T00:38:54.574Z,81.45
2018-04-29T00:39:54.574Z,81.26
2018-04-29T00:40:54.573Z,81.26
2018-04-29T00:41:54.573Z,81.84
2018-04-29T00:42:54.571Z,81.74
2018-04-29T00:43:54.572Z,81.26
2018-04-29T00:44:54.570Z,81.16
2018-04-29T00:45:54.569Z,81.26
2018-04-29T00:46:54.568Z,81.55
2018-04-29T00:47:54.569Z,81.55
2018-04-29T00:48:54.568Z,81.45
2018-04-29T00:49:54.567Z,81.16
2018-04-29T00:50:54.580Z,81.65
2018-04-29T00:51:54.569Z,81.45
2018-04-29T00:52:54.566Z,81.45
2018-04-29T00:53:54.569Z,81.45
2018-04-29T00:54:54.564Z,81.36
2018-04-29T00:55:54.559Z,81.93
2018-04-29T00:56:54.563Z,81.45
2018-04-29T00:57:54.565Z,81.26
2018-04-29T00:58:54.563Z,80.69
2018-04-29T00:59:54.557Z,81.45
2018-04-29T01:00:54.561Z,81.36
2018-04-29T01:01:54.562Z,80.65
2018-04-29T01:02:54.558Z,80.46
2018-04-29T01:03:54.560Z,80.93
2018-04-29T01:04:54.562Z,80.46
2018-04-29T01:05:54.569Z,80.84
2018-04-29T01:06:54.559Z,80.65
2018-04-29T01:07:54.559Z,80.22
2018-04-29T01:08:54.556Z,80.32
2018-04-29T01:09:54.558Z,80.61
2018-04-29T01:10:54.553Z,80.61
2018-04-29T01:11:54.561Z,80.41
2018-04-29T01:12:54.551Z,79.94
2018-04-29T01:13:54.547Z,80.51
2018-04-29T01:14:54.550Z,80.74
2018-04-29T01:15:54.548Z,80.17
2018-04-29T01:16:54.548Z,80.36
2018-04-29T01:17:54.550Z,80.07
2018-04-29T01:18:54.548Z,80.36
2018-04-29T01:19:54.547Z,80.07
2018-04-29T01:20:54.544Z,80.46
2018-04-29T01:21:54.549Z,79.79
2018-04-29T01:22:54.541Z,80.36
2018-04-29T01:23:54.538Z,80.17
2018-04-29T01:24:54.541Z,80.93
2018-04-29T01:25:54.541Z,80.36
2018-04-29T01:26:54.535Z,79.41
2018-04-29T01:27:54.540Z,79.60
2018-04-29T01:28:54.544Z,80.17
2018-04-29T01:29:54.537Z,80.07
2018-04-29T01:30:54.533Z,79.79
2018-04-29T01:31:54.535Z,79.69
2018-04-29T01:32:54.538Z,79.31
2018-04-29T01:33:54.534Z,79.41
2018-04-29T01:34:54.537Z,79.31
2018-04-29T01:35:54.536Z,80.07
2018-04-29T01:36:54.532Z,79.69
2018-04-29T01:37:54.529Z,79.12
2018-04-29T01:38:54.529Z,78.93
2018-04-29T01:39:54.530Z,79.50
2018-04-29T01:40:54.527Z,79.60
2018-04-29T01:41:54.528Z,79.22
2018-04-29T01:42:54.531Z,79.88
2018-04-29T01:43:54.526Z,79.41
2018-04-29T01:44:54.525Z,79.31
2018-04-29T01:45:54.521Z,79.69
2018-04-29T01:46:54.521Z,78.93
2018-04-29T01:47:54.522Z,79.12
2018-04-29T01:48:54.522Z,79.31
2018-04-29T01:49:54.523Z,79.75
2018-04-29T01:50:54.521Z,79.08
2018-04-29T01:51:54.517Z,79.50
2018-04-29T01:52:54.516Z,78.93
2018-04-29T01:53:54.519Z,79.79
2018-04-29T01:54:54.514Z,79.41
2018-04-29T01:55:54.514Z,79.69
2018-04-29T01:56:54.514Z,80.17
2018-04-29T01:57:54.517Z,79.98
2018-04-29T01:58:54.514Z,79.69
2018-04-29T01:59:54.510Z,79.69
2018-04-29T02:00:54.513Z,79.88
2018-04-29T02:01:54.516Z,80.07
2018-04-29T02:02:54.506Z,79.79
2018-04-29T02:03:54.507Z,79.69
2018-04-29T02:04:54.506Z,80.74
2018-04-29T02:05:54.506Z,80.74
2018-04-29T02:06:54.506Z,80.07
2018-04-29T02:07:54.502Z,80.07
2018-04-29T02:08:54.504Z,79.79
2018-04-29T02:09:54.500Z,79.31
2018-04-29T02:10:54.495Z,79.50
2018-04-29T02:11:54.497Z,80.27
2018-04-29T02:12:54.498Z,81.09
2018-04-29T02:13:54.496Z,79.50
2018-04-29T02:14:54.498Z,80.27
2018-04-29T02:15:54.496Z,79.94
2018-04-29T02:16:54.492Z,79.27
2018-04-29T02:17:54.490Z,80.51
2018-04-29T02:18:54.490Z,80.61
2018-04-29T02:19:54.488Z,80.61
2018-04-29T02:20:54.487Z,80.41
2018-04-29T02:21:54.489Z,81.18
2018-04-29T02:22:54.489Z,80.65
2018-04-29T02:23:54.489Z,80.13
2018-04-29T02:24:54.484Z,80.61
2018-04-29T02:25:54.482Z,80.51
2018-04-29T02:26:54.478Z,79.27
2018-04-29T02:27:54.481Z,80.32
2018-04-29T02:28:54.483Z,79.46
2018-04-29T02:29:54.481Z,80.04
2018-04-29T02:30:54.472Z,79.75
2018-04-29T02:31:54.470Z,79.75
2018-04-29T02:32:54.475Z,79.94
2018-04-29T02:33:54.470Z,79.56
2018-04-29T02:34:54.475Z,79.08
2018-04-29T02:35:54.468Z,78.89
2018-04-29T02:36:54.468Z,78.89
2018-04-29T02:37:54.466Z,78.47
2018-04-29T02:38:54.462Z,79.27
2018-04-29T02:39:54.465Z,79.17
2018-04-29T02:40:54.467Z,79.14
2018-04-29T02:41:54.463Z,78.60
2018-04-29T02:42:54.459Z,78.99
2018-04-29T02:43:54.461Z,79.17
2018-04-29T02:44:54.457Z,79.27
2018-04-29T02:45:54.459Z,78.75
2018-04-29T02:46:54.453Z,78.89
2018-04-29T02:47:54.453Z,79.23
2018-04-29T02:48:54.451Z,78.94
2018-04-29T02:49:54.456Z,79.14
2018-04-29T02:50:54.448Z,78.94
2018-04-29T02:51:54.447Z,79.04
2018-04-29T02:52:54.446Z,78.85
2018-04-29T02:53:54.445Z,78.09
2018-04-29T02:54:54.446Z,78.37
2018-04-29T02:55:54.441Z,78.47
2018-04-29T02:56:54.446Z,78.56
2018-04-29T02:57:54.438Z,78.37
2018-04-29T02:58:54.435Z,78.47
2018-04-29T02:59:54.439Z,78.18
2018-04-29T03:00:54.444Z,78.75
2018-04-29T03:01:54.434Z,78.28
2018-04-29T03:02:54.430Z,78.28
2018-04-29T03:03:54.432Z,78.94
2018-04-29T03:04:54.431Z,78.28
2018-04-29T03:05:54.432Z,78.28
2018-04-29T03:06:54.425Z,77.99
2018-04-29T03:07:54.424Z,78.75
2018-04-29T03:08:54.421Z,79.04
2018-04-29T03:09:54.422Z,79.04
2018-04-29T03:10:54.423Z,79.04
2018-04-29T03:11:54.416Z,78.94
2018-04-29T03:12:54.416Z,78.28
2018-04-29T03:13:54.414Z,78.75
2018-04-29T03:14:54.412Z,78.28
2018-04-29T03:15:54.410Z,78.28
2018-04-29T03:16:54.409Z,78.18
2018-04-29T03:17:54.408Z,78.09
2018-04-29T03:18:54.410Z,78.28
2018-04-29T03:19:54.404Z,78.47
2018-04-29T03:20:54.404Z,78.28
2018-04-29T03:21:54.405Z,78.85
2018-04-29T03:22:54.394Z,79.04
2018-04-29T03:23:54.396Z,78.66
2018-04-29T03:24:54.397Z,78.85
2018-04-29T03:25:54.394Z,78.28
2018-04-29T03:26:54.393Z,78.28
2018-04-29T03:27:54.394Z,78.37
2018-04-29T03:28:54.391Z,78.75
2018-04-29T03:29:54.386Z,78.37
2018-04-29T03:30:54.387Z,78.75
2018-04-29T03:31:54.384Z,78.28
2018-04-29T03:32:54.383Z,77.89
2018-04-29T03:33:54.381Z,78.18
2018-04-29T03:34:54.380Z,78.33
2018-04-29T03:35:54.378Z,78.14
2018-04-29T03:36:54.376Z,78.33
2018-04-29T03:37:54.375Z,77.95
2018-04-29T03:38:54.374Z,78.81
2018-04-29T03:39:54.370Z,78.33
2018-04-29T03:40:54.369Z,78.62
2018-04-29T03:41:54.368Z,78.05
2018-04-29T03:42:54.371Z,78.05
2018-04-29T03:43:54.364Z,78.81
2018-04-29T03:44:54.364Z,78.14
2018-04-29T03:45:54.359Z,78.72
2018-04-29T03:46:54.359Z,78.62
2018-04-29T03:47:54.352Z,78.14
2018-04-29T03:48:54.355Z,78.52
2018-04-29T03:49:54.352Z,78.14
2018-04-29T03:50:54.350Z,78.14
2018-04-29T03:51:54.350Z,78.14
2018-04-29T03:52:54.347Z,78.23
2018-04-29T03:53:54.345Z,78.05
2018-04-29T03:54:54.346Z,77.38
2018-04-29T03:55:54.346Z,77.57
2018-04-29T03:56:54.335Z,77.91
2018-04-29T03:57:54.336Z,77.19
2018-04-29T03:58:54.332Z,77.86
2018-04-29T03:59:54.331Z,77.91
2018-04-29T04:00:54.336Z,77.82
2018-04-29T04:01:54.329Z,77.86
2018-04-29T04:02:54.330Z,77.86
2018-04-29T04:03:54.326Z,77.28
2018-04-29T04:04:54.324Z,77.38
2018-04-29T04:05:54.321Z,77.95
2018-04-29T04:06:54.317Z,77.86
2018-04-29T04:07:54.316Z,77.47
2018-04-29T04:08:54.313Z,77.72
2018-04-29T04:09:54.313Z,78.14
2018-04-29T04:10:54.310Z,78.14
2018-04-29T04:11:54.307Z,78.23
2018-04-29T04:12:54.310Z,78.81
2018-04-29T04:13:54.303Z,78.33
2018-04-29T04:14:54.302Z,78.33
2018-04-29T04:15:54.299Z,77.95
2018-04-29T04:16:54.297Z,77.95
2018-04-29T04:17:54.300Z,77.57
2018-04-29T04:18:54.302Z,77.76
2018-04-29T04:19:54.294Z,77.67
2018-04-29T04:20:54.295Z,77.95
2018-04-29T04:21:54.289Z,78.33
2018-04-29T04:22:54.285Z,78.23
2018-04-29T04:23:54.283Z,78.23
2018-04-29T04:24:54.282Z,78.33
2018-04-29T04:25:54.280Z,78.33
2018-04-29T04:26:54.282Z,78.23
2018-04-29T04:27:54.275Z,78.72
2018-04-29T04:28:54.275Z,78.33
2018-04-29T04:29:54.278Z,78.14
2018-04-29T04:30:54.270Z,78.23
2018-04-29T04:31:54.268Z,78.85
2018-04-29T04:32:54.265Z,78.47
2018-04-29T04:33:54.266Z,78.85
2018-04-29T04:34:54.262Z,78.56
2018-04-29T04:35:54.262Z,78.37
2018-04-29T04:36:54.258Z,78.75
2018-04-29T04:37:54.257Z,79.04
2018-04-29T04:38:54.259Z,78.75
2018-04-29T04:39:54.255Z,78.66
2018-04-29T04:40:54.250Z,79.14
2018-04-29T04:41:54.250Z,79.61
2018-04-29T04:42:54.247Z,79.43
2018-04-29T04:43:54.242Z,79.52
2018-04-29T04:44:54.245Z,79.43
2018-04-29T04:45:54.242Z,79.43
2018-04-29T04:46:54.237Z,80.22
2018-04-29T04:47:54.237Z,80.13
2018-04-29T04:48:54.239Z,80.22
2018-04-29T04:49:54.233Z,80.04
2018-04-29T04:50:54.230Z,79.75
2018-04-29T04:51:54.231Z,80.13
2018-04-29T04:52:54.239Z,79.94
2018-04-29T04:53:54.225Z,80.61
2018-04-29T04:54:54.226Z,80.41
2018-04-29T04:55:54.223Z,80.41
2018-04-29T04:56:54.220Z,80.13
2018-04-29T04:57:54.227Z,80.55
2018-04-29T04:58:54.218Z,81.22
2018-04-29T04:59:54.216Z,81.22
2018-04-29T05:00:54.217Z,81.32
2018-04-29T05:01:54.215Z,81.41
2018-04-29T05:02:54.211Z,81.32
2018-04-29T05:03:54.210Z,81.26
2018-04-29T05:04:54.209Z,81.36
2018-04-29T05:05:54.208Z,82.07
2018-04-29T05:06:54.205Z,82.83
2018-04-29T05:07:54.204Z,83.26
2018-04-29T05:08:54.205Z,83.78
2018-04-29T05:09:54.202Z,84.06
2018-04-29T05:10:54.201Z,84.53
2018-04-29T05:11:54.195Z,85.05
2018-04-29T05:12:54.198Z,85.24
2018-04-29T05:13:54.195Z,85.57
2018-04-29T05:14:54.196Z,85.51
2018-04-29T05:15:54.194Z,85.02
2018-04-29T05:16:54.193Z,83.72
2018-04-29T05:17:54.193Z,82.08
2018-04-29T05:18:54.194Z,81.45
2018-04-29T05:19:54.194Z,79.23
2018-04-29T05:20:54.195Z,77.78
2018-04-29T05:21:54.191Z,78.75
2018-04-29T05:22:54.187Z,78.11
2018-04-29T05:23:54.188Z,74.68
2018-04-29T05:24:54.186Z,73.33
2018-04-29T05:25:54.192Z,73.82
2018-04-29T05:26:54.193Z,71.48
2018-04-29T05:27:54.188Z,69.55
2018-04-29T05:28:54.189Z,68.59
2018-04-29T05:29:54.191Z,67.88
2018-04-29T05:30:54.191Z,70.67
2018-04-29T05:31:54.190Z,72.21
2018-04-29T05:32:54.195Z,71.25
2018-04-29T05:33:54.193Z,70.57
2018-04-29T05:34:54.194Z,68.52
2018-04-29T05:35:54.193Z,64.98
2018-04-29T05:36:54.195Z,63.73
2018-04-29T05:37:54.194Z,63.95
2018-04-29T05:38:54.196Z,61.15
2018-04-29T05:39:54.198Z,60.69
2018-04-29T05:40:54.195Z,58.80
2018-04-29T05:41:54.201Z,55.92
2018-04-29T05:42:54.202Z,54.27
2018-04-29T05:43:54.205Z,53.04
2018-04-29T05:44:54.207Z,52.95
2018-04-29T05:45:54.207Z,52.85
2018-04-29T05:46:54.241Z,51.72
2018-04-29T05:47:54.213Z,50.35
2018-04-29T05:48:54.213Z,51.13
2018-04-29T05:49:54.290Z,50.87
2018-04-29T05:50:54.219Z,49.87
2018-04-29T05:51:54.220Z,50.07
2018-04-29T05:52:54.226Z,49.02
2018-04-29T05:53:54.227Z,48.83
2018-04-29T05:54:54.238Z,47.86
2018-04-29T05:55:54.230Z,47.52
2018-04-29T05:56:54.234Z,48.30
2018-04-29T05:57:54.239Z,47.35
2018-04-29T05:58:54.238Z,46.69
2018-04-29T05:59:54.241Z,45.72
2018-04-29T06:00:54.242Z,45.07
2018-04-29T06:01:54.248Z,44.29
2018-04-29T06:02:54.254Z,44.65
2018-04-29T06:03:54.255Z,46.75
2018-04-29T06:04:54.260Z,47.16
2018-04-29T06:05:54.262Z,50.21
2018-04-29T06:06:54.263Z,51.61
2018-04-29T06:07:54.268Z,52.87
2018-04-29T06:08:54.270Z,51.95
2018-04-29T06:09:54.278Z,51.20
2018-04-29T06:10:54.280Z,49.92
2018-04-29T06:11:54.282Z,50.67
2018-04-29T06:12:54.286Z,51.83
2018-04-29T06:13:54.288Z,50.82
2018-04-29T06:14:54.296Z,49.51
2018-04-29T06:15:54.300Z,48.30
2018-04-29T06:16:54.299Z,46.79
2018-04-29T06:17:54.304Z,44.54
2018-04-29T06:18:54.319Z,44.40
2018-04-29T06:19:54.312Z,45.48
2018-04-29T06:20:54.317Z,44.85
2018-04-29T06:21:54.321Z,44.51
2018-04-29T06:22:54.325Z,42.60
2018-04-29T06:23:54.329Z,41.48
2018-04-29T06:24:54.335Z,40.37
2018-04-29T06:25:54.369Z,40.62
2018-04-29T06:26:54.344Z,39.49
2018-04-29T06:27:54.350Z,38.63
2018-04-29T06:28:54.367Z,37.48
2018-04-29T06:29:54.364Z,36.80
2018-04-29T06:30:54.364Z,35.31
2018-04-29T06:31:54.434Z,35.41
2018-04-29T06:32:54.377Z,37.29
2018-04-29T06:33:54.383Z,39.51
2018-04-29T06:34:54.388Z,39.90
2018-04-29T06:35:54.392Z,40.27
2018-04-29T06:36:54.397Z,39.24
2018-04-29T06:37:54.406Z,39.20
2018-04-29T06:38:54.451Z,40.44
2018-04-29T06:39:54.414Z,40.81
2018-04-29T06:40:54.422Z,42.03
2018-04-29T06:41:54.428Z,43.26
2018-04-29T06:42:54.427Z,43.04
2018-04-29T06:43:54.498Z,45.71
2018-04-29T06:44:54.448Z,48.13
2018-04-29T06:45:54.454Z,49.73
2018-04-29T06:46:54.532Z,49.55
2018-04-29T06:47:54.463Z,51.82
2018-04-29T06:48:54.469Z,52.62
2018-04-29T06:49:54.473Z,51.66
2018-04-29T06:50:54.477Z,48.32
2018-04-29T06:51:54.485Z,44.74
2018-04-29T06:52:54.489Z,45.47
2018-04-29T06:53:54.495Z,45.71
2018-04-29T06:54:54.500Z,45.18
2018-04-29T06:55:54.505Z,46.92
2018-04-29T06:56:54.527Z,45.71
2018-04-29T06:57:54.517Z,44.76
2018-04-29T06:58:54.531Z,42.94
2018-04-29T06:59:54.529Z,43.21
2018-04-29T07:00:54.598Z,43.73
2018-04-29T07:01:54.542Z,46.44
2018-04-29T07:02:54.547Z,48.90
2018-04-29T07:03:54.551Z,49.63
2018-04-29T07:04:54.557Z,51.24
2018-04-29T07:05:54.561Z,52.47
2018-04-29T07:06:54.574Z,54.80
2018-04-29T07:07:54.572Z,55.96
2018-04-29T07:08:54.577Z,55.02
2018-04-29T07:09:54.585Z,55.02
2018-04-29T07:10:54.591Z,54.64
2018-04-29T07:11:54.597Z,53.22
2018-04-29T07:12:54.602Z,52.47
2018-04-29T07:13:54.603Z,52.01
2018-04-29T07:14:54.607Z,50.84
2018-04-29T07:15:54.615Z,50.90
2018-04-29T07:16:54.622Z,50.88
2018-04-29T07:17:54.623Z,52.61
2018-04-29T07:18:54.622Z,53.29
2018-04-29T07:19:54.698Z,54.16
2018-04-29T07:20:54.638Z,55.41
2018-04-29T07:21:54.639Z,54.64
2018-04-29T07:22:54.647Z,53.39
2018-04-29T07:23:54.657Z,53.07
2018-04-29T07:24:54.654Z,54.87
2018-04-29T07:25:54.660Z,56.12
2018-04-29T07:26:54.667Z,56.22
2018-04-29T07:27:54.667Z,57.37
2018-04-29T07:28:54.671Z,58.72
2018-04-29T07:29:54.674Z,58.63
2018-04-29T07:30:54.679Z,59.01
2018-04-29T07:31:54.682Z,58.44
2018-04-29T07:32:54.687Z,60.46
2018-04-29T07:33:54.693Z,61.90
2018-04-29T07:34:54.699Z,62.57
2018-04-29T07:35:54.696Z,57.54
2018-04-29T07:36:54.703Z,59.56
2018-04-29T07:37:54.713Z,60.59
2018-04-29T07:38:54.708Z,61.55
2018-04-29T07:39:54.752Z,61.94
2018-04-29T07:40:54.771Z,60.59
2018-04-29T07:41:54.718Z,59.34
2018-04-29T07:42:54.723Z,58.86
2018-04-29T07:43:54.727Z,61.19
2018-04-29T07:44:54.731Z,59.85
2018-04-29T07:45:54.734Z,60.14
2018-04-29T07:46:54.738Z,57.92
2018-04-29T07:47:54.741Z,56.74
2018-04-29T07:48:54.742Z,57.45
2018-04-29T07:49:54.744Z,58.31
2018-04-29T07:50:54.748Z,59.82
2018-04-29T07:51:54.754Z,59.15
2018-04-29T07:52:54.756Z,59.72
2018-04-29T07:53:54.759Z,58.86
2018-04-29T07:54:54.761Z,60.88
2018-04-29T07:55:54.767Z,61.61
2018-04-29T07:56:54.767Z,61.46
2018-04-29T07:57:54.770Z,61.16
2018-04-29T07:58:54.770Z,61.07
2018-04-29T07:59:54.777Z,62.06
2018-04-29T08:00:54.777Z,59.66
2018-04-29T08:01:54.781Z,59.30
2018-04-29T08:02:54.788Z,57.40
2018-04-29T08:03:54.791Z,56.63
2018-04-29T08:04:54.790Z,55.65
2018-04-29T08:05:54.797Z,56.29
2018-04-29T08:06:54.799Z,56.26
2018-04-29T08:07:54.800Z,54.56
2018-04-29T08:08:54.804Z,55.55
2018-04-29T08:09:54.807Z,54.97
2018-04-29T08:10:54.835Z,55.35
2018-04-29T08:11:54.813Z,55.65
2018-04-29T08:12:54.815Z,56.90
2018-04-29T08:13:54.819Z,56.67
2018-04-29T08:14:54.823Z,57.15
2018-04-29T08:15:54.827Z,57.35
2018-04-29T08:16:54.828Z,56.58
2018-04-29T08:17:54.833Z,56.10
2018-04-29T08:18:54.834Z,56.29
2018-04-29T08:19:54.837Z,56.32
2018-04-29T08:20:54.849Z,56.80
2018-04-29T08:21:54.849Z,56.15
2018-04-29T08:22:54.847Z,55.96
2018-04-29T08:23:54.850Z,55.89
2018-04-29T08:24:54.857Z,55.67
2018-04-29T08:25:54.857Z,55.96
2018-04-29T08:26:54.862Z,55.65
2018-04-29T08:27:54.864Z,56.60
2018-04-29T08:28:54.870Z,57.09
2018-04-29T08:29:54.873Z,56.80
2018-04-29T08:30:54.871Z,55.62
2018-04-29T08:31:54.876Z,56.22
2018-04-29T08:32:54.883Z,54.87
2018-04-29T08:33:54.886Z,54.58
2018-04-29T08:34:54.887Z,55.23
2018-04-29T08:35:54.889Z,55.52
2018-04-29T08:36:54.894Z,54.83
2018-04-29T08:37:54.902Z,52.57
2018-04-29T08:38:54.900Z,52.71
2018-04-29T08:39:54.907Z,53.36
2018-04-29T08:40:54.907Z,54.30
2018-04-29T08:41:54.988Z,54.17
2018-04-29T08:42:54.915Z,56.03
2018-04-29T08:43:54.915Z,53.96
2018-04-29T08:44:54.922Z,51.26
2018-04-29T08:45:54.928Z,50.37
2018-04-29T08:46:54.929Z,49.68
2018-04-29T08:47:54.932Z,50.25
2018-04-29T08:48:54.935Z,49.96
2018-04-29T08:49:54.940Z,50.04
2018-04-29T08:50:54.942Z,49.74
2018-04-29T08:51:54.945Z,49.46
2018-04-29T08:52:54.951Z,49.34
2018-04-29T08:53:54.952Z,46.40
2018-04-29T08:54:55.019Z,44.03
2018-04-29T08:55:55.005Z,43.08
2018-04-29T08:56:54.963Z,41.54
2018-04-29T08:57:54.966Z,40.71
2018-04-29T08:58:54.968Z,40.40
2018-04-29T08:59:54.971Z,41.63
2018-04-29T09:00:54.978Z,41.83
2018-04-29T09:01:54.978Z,42.43
2018-04-29T09:02:54.982Z,42.89
2018-04-29T09:03:55.024Z,43.08
2018-04-29T09:04:54.992Z,43.24
2018-04-29T09:05:55.006Z,44.76
2018-04-29T09:06:54.997Z,45.48
2018-04-29T09:07:54.998Z,47.51
2018-04-29T09:08:55.002Z,47.97
2018-04-29T09:09:55.006Z,49.32
2018-04-29T09:10:55.013Z,48.90
2018-04-29T09:11:55.013Z,49.68
2018-04-29T09:12:55.015Z,50.83
2018-04-29T09:13:55.018Z,51.31
2018-04-29T09:14:55.020Z,51.50
2018-04-29T09:15:55.033Z,53.14
2018-04-29T09:16:55.043Z,52.66
2018-04-29T09:17:55.027Z,53.14
2018-04-29T09:18:55.033Z,53.14
2018-04-29T09:19:55.036Z,53.45
2018-04-29T09:20:55.041Z,51.53
2018-04-29T09:21:55.039Z,51.05
2018-04-29T09:22:55.044Z,51.17
2018-04-29T09:23:55.048Z,50.66
2018-04-29T09:24:55.047Z,50.83
2018-04-29T09:25:55.049Z,52.37
2018-04-29T09:26:55.058Z,51.12
2018-04-29T09:27:55.054Z,50.63
2018-04-29T09:28:55.057Z,51.50
2018-04-29T09:29:55.063Z,49.68
2018-04-29T09:30:55.068Z,48.13
2018-04-29T09:31:55.065Z,48.35
2018-04-29T09:32:55.069Z,48.16
2018-04-29T09:33:55.071Z,47.36
2018-04-29T09:34:55.072Z,48.03
2018-04-29T09:35:55.072Z,49.00
2018-04-29T09:36:55.123Z,50.06
2018-04-29T09:37:55.090Z,49.68
2018-04-29T09:38:55.078Z,50.85
2018-04-29T09:39:55.082Z,50.47
2018-04-29T09:40:55.084Z,49.73
2018-04-29T09:41:55.087Z,47.12
2018-04-29T09:42:55.093Z,46.93
2018-04-29T09:43:55.093Z,44.02
2018-04-29T09:44:55.095Z,44.40
2018-04-29T09:45:55.097Z,44.31
2018-04-29T09:46:55.100Z,44.40
2018-04-29T09:47:55.101Z,43.34
2018-04-29T09:48:55.105Z,42.74
2018-04-29T09:49:55.107Z,43.32
2018-04-29T09:50:55.109Z,44.40
2018-04-29T09:51:55.110Z,44.11
2018-04-29T09:52:55.116Z,44.02
2018-04-29T09:53:55.118Z,43.94
2018-04-29T09:54:55.119Z,44.42
2018-04-29T09:55:55.119Z,44.69
2018-04-29T09:56:55.121Z,45.56
2018-04-29T09:57:55.123Z,46.62
2018-04-29T09:58:55.176Z,46.62
2018-04-29T09:59:55.130Z,47.67
2018-04-29T10:00:55.137Z,47.00
2018-04-29T10:01:55.135Z,47.39
2018-04-29T10:02:55.134Z,47.03
2018-04-29T10:03:55.136Z,46.25
2018-04-29T10:04:55.138Z,46.33
2018-04-29T10:05:55.145Z,46.83
2018-04-29T10:06:55.144Z,46.81
2018-04-29T10:07:55.146Z,47.99
2018-04-29T10:08:55.149Z,49.24
2018-04-29T10:09:55.150Z,47.41
2018-04-29T10:10:55.153Z,47.99
2018-04-29T10:11:55.176Z,46.95
2018-04-29T10:12:55.159Z,46.25
2018-04-29T10:13:55.159Z,45.87
2018-04-29T10:14:55.160Z,47.60
2018-04-29T10:15:55.164Z,47.72
2018-04-29T10:16:55.166Z,48.01
2018-04-29T10:17:55.176Z,46.97
2018-04-29T10:18:55.259Z,47.75
2018-04-29T10:19:55.172Z,46.95
2018-04-29T10:20:55.178Z,46.08
2018-04-29T10:21:55.179Z,46.47
2018-04-29T10:22:55.180Z,47.94
2018-04-29T10:23:55.183Z,45.41
2018-04-29T10:24:55.186Z,46.37
2018-04-29T10:25:55.188Z,45.99
2018-04-29T10:26:55.199Z,48.01
2018-04-29T10:27:55.193Z,48.21
2018-04-29T10:28:55.200Z,48.18
2018-04-29T10:29:55.199Z,47.99
2018-04-29T10:30:55.201Z,48.74
2018-04-29T10:31:55.202Z,49.53
2018-04-29T10:32:55.226Z,50.21
2018-04-29T10:33:55.211Z,51.29
2018-04-29T10:34:55.212Z,49.94
2018-04-29T10:35:55.252Z,50.32
2018-04-29T10:36:55.215Z,51.58
2018-04-29T10:37:55.220Z,50.93
2018-04-29T10:38:55.222Z,50.16
2018-04-29T10:39:55.225Z,51.32
2018-04-29T10:40:55.230Z,49.87
2018-04-29T10:41:55.237Z,49.39
2018-04-29T10:42:55.232Z,48.49
2018-04-29T10:43:55.235Z,49.07
2018-04-29T10:44:55.233Z,49.46
2018-04-29T10:45:55.240Z,51.70
2018-04-29T10:46:55.242Z,49.96
2018-04-29T10:47:55.248Z,48.23
2018-04-29T10:48:55.250Z,49.80
2018-04-29T10:49:55.252Z,49.90
2018-04-29T10:50:55.254Z,50.67
2018-04-29T10:51:55.256Z,49.70
2018-04-29T10:52:55.259Z,48.83
2018-04-29T10:53:55.264Z,48.66
2018-04-29T10:54:55.267Z,48.16
2018-04-29T10:55:55.340Z,48.74
2018-04-29T10:56:55.272Z,49.32
2018-04-29T10:57:55.275Z,49.22
2018-04-29T10:58:55.278Z,49.12
2018-04-29T10:59:55.281Z,50.18
2018-04-29T11:00:55.286Z,49.60
2018-04-29T11:01:55.291Z,49.39
2018-04-29T11:02:55.292Z,49.48
2018-04-29T11:03:55.293Z,50.26
2018-04-29T11:04:55.299Z,50.06
2018-04-29T11:05:55.299Z,51.44
2018-04-29T11:06:55.304Z,50.47
2018-04-29T11:07:55.306Z,50.57
2018-04-29T11:08:55.309Z,49.92
2018-04-29T11:09:55.315Z,49.44
2018-04-29T11:10:55.318Z,47.96
2018-04-29T11:11:55.320Z,48.74
2018-04-29T11:12:55.323Z,48.93
2018-04-29T11:13:55.322Z,49.41
2018-04-29T11:14:55.330Z,49.80
2018-04-29T11:15:55.331Z,50.67
2018-04-29T11:16:55.334Z,50.96
2018-04-29T11:17:55.337Z,49.70
2018-04-29T11:18:55.340Z,49.32
2018-04-29T11:19:55.344Z,49.41
2018-04-29T11:20:55.347Z,49.02
2018-04-29T11:21:55.349Z,48.06
2018-04-29T11:22:55.361Z,48.25
2018-04-29T11:23:55.356Z,48.64
2018-04-29T11:24:55.359Z,48.16
2018-04-29T11:25:55.363Z,47.87
2018-04-29T11:26:55.366Z,47.77
2018-04-29T11:27:55.376Z,49.51
2018-04-29T11:28:55.441Z,49.34
2018-04-29T11:29:55.375Z,48.66
2018-04-29T11:30:55.383Z,46.92
2018-04-29T11:31:55.381Z,46.06
2018-04-29T11:32:55.387Z,46.44
2018-04-29T11:33:55.471Z,46.25
2018-04-29T11:34:55.392Z,47.72
2018-04-29T11:35:55.401Z,46.54
2018-04-29T11:36:55.401Z,45.18
2018-04-29T11:37:55.406Z,46.85
2018-04-29T11:38:55.411Z,45.31
2018-04-29T11:39:55.409Z,44.82
2018-04-29T11:40:55.414Z,45.31
2018-04-29T11:41:55.416Z,44.34
2018-04-29T11:42:55.419Z,44.70
2018-04-29T11:43:55.425Z,44.49
2018-04-29T11:44:55.426Z,44.90
2018-04-29T11:45:55.477Z,47.02
2018-04-29T11:46:55.438Z,45.50
2018-04-29T11:47:55.438Z,45.40
2018-04-29T11:48:55.441Z,45.31
2018-04-29T11:49:55.446Z,44.43
2018-04-29T11:50:55.448Z,44.34
2018-04-29T11:51:55.452Z,44.53
2018-04-29T11:52:55.455Z,43.54
2018-04-29T11:53:55.460Z,44.82
2018-04-29T11:54:55.461Z,44.70
2018-04-29T11:55:55.467Z,44.12
2018-04-29T11:56:55.471Z,44.20
2018-04-29T11:57:55.476Z,44.42
2018-04-29T11:58:55.476Z,45.28
2018-04-29T11:59:55.481Z,45.48
2018-04-29T12:00:55.484Z,44.32
2018-04-29T12:01:55.569Z,44.60
2018-04-29T12:02:55.496Z,46.08
2018-04-29T12:03:55.495Z,46.56
2018-04-29T12:04:55.499Z,45.50
2018-04-29T12:05:55.503Z,44.15
2018-04-29T12:06:55.510Z,44.92
2018-04-29T12:07:55.510Z,45.21
2018-04-29T12:08:55.522Z,46.27
2018-04-29T12:09:55.524Z,45.31
2018-04-29T12:10:55.525Z,46.27
2018-04-29T12:11:55.523Z,48.13
2018-04-29T12:12:55.527Z,47.84
2018-04-29T12:13:55.531Z,45.54
2018-04-29T12:14:55.533Z,46.12
2018-04-29T12:15:55.535Z,45.16
2018-04-29T12:16:55.544Z,44.67
2018-04-29T12:17:55.546Z,45.35
2018-04-29T12:18:55.549Z,45.95
2018-04-29T12:19:55.564Z,45.18
2018-04-29T12:20:55.560Z,44.19
2018-04-29T12:21:55.597Z,44.09
2018-04-29T12:22:55.564Z,44.53
2018-04-29T12:23:55.568Z,44.63
2018-04-29T12:24:55.571Z,45.52
2018-04-29T12:25:55.577Z,45.81
2018-04-29T12:26:55.581Z,44.56
2018-04-29T12:27:55.593Z,45.14
2018-04-29T12:28:55.593Z,46.03
2018-04-29T12:29:55.594Z,44.48
2018-04-29T12:30:55.598Z,44.09
2018-04-29T12:31:55.600Z,44.19
2018-04-29T12:32:55.604Z,44.09
2018-04-29T12:33:55.607Z,44.38
2018-04-29T12:34:55.612Z,44.67
2018-04-29T12:35:55.615Z,45.25
2018-04-29T12:36:55.619Z,45.35
2018-04-29T12:37:55.627Z,44.38
2018-04-29T12:38:55.637Z,44.48
2018-04-29T12:39:55.711Z,45.25
2018-04-29T12:40:55.638Z,44.87
2018-04-29T12:41:55.638Z,45.64
2018-04-29T12:42:55.651Z,44.67
2018-04-29T12:43:55.652Z,44.96
2018-04-29T12:44:55.654Z,45.06
2018-04-29T12:45:55.660Z,45.16
2018-04-29T12:46:55.664Z,44.98
2018-04-29T12:47:55.668Z,44.48
2018-04-29T12:48:55.673Z,44.48
2018-04-29T12:49:55.675Z,45.08
2018-04-29T12:50:55.679Z,45.45
2018-04-29T12:51:55.684Z,46.12
2018-04-29T12:52:55.708Z,47.19